createdAt,value
2022-12-31T00:00:38.696Z,3.10
2022-12-31T00:03:10.389Z,4.72
2022-12-31T00:05:38.209Z,2.50
2022-12-31T00:08:05.905Z,1.35
2022-12-31T00:10:39.977Z,5.30
2022-12-31T00:13:12.100Z,4.68
2022-12-31T00:15:41.493Z,4.28
2022-12-31T00:18:09.830Z,2.88
2022-12-31T00:20:43.378Z,2.85
2022-12-31T00:23:11.395Z,4.93
2022-12-31T00:25:38.971Z,2.92
2022-12-31T00:28:06.721Z,6.28
2022-12-31T00:30:34.742Z,1.65
2022-12-31T00:33:02.294Z,3.50
2022-12-31T00:35:29.736Z,3.10
2022-12-31T00:37:57.280Z,3.22
2022-12-31T00:40:24.959Z,6.57
2022-12-31T00:42:52.497Z,3.83
2022-12-31T00:45:19.977Z,5.40
2022-12-31T00:47:47.448Z,5.53
2022-12-31T00:50:14.934Z,3.42
2022-12-31T00:52:42.418Z,4.15
2022-12-31T00:55:10.089Z,3.53
2022-12-31T00:57:37.653Z,2.95
2022-12-31T01:00:07.654Z,3.55
2022-12-31T01:02:35.514Z,4.75
2022-12-31T01:05:03.100Z,4.10
2022-12-31T01:07:30.639Z,3.75
2022-12-31T01:09:58.292Z,2.47
2022-12-31T01:12:25.847Z,6.82
2022-12-31T01:14:53.392Z,5.15
2022-12-31T01:17:21.000Z,2.60
2022-12-31T01:19:48.535Z,7.13
2022-12-31T01:22:16.236Z,3.20
2022-12-31T01:24:43.734Z,4.57
2022-12-31T01:27:11.247Z,3.65
2022-12-31T01:29:38.768Z,3.05
2022-12-31T01:32:06.303Z,3.17
2022-12-31T01:34:33.921Z,4.13
2022-12-31T01:37:01.506Z,3.45
2022-12-31T01:39:29.172Z,4.18
2022-12-31T01:41:56.667Z,3.38
2022-12-31T01:44:27.343Z,7.65
2022-12-31T01:47:00.984Z,6.22
2022-12-31T01:49:37.296Z,5.28
2022-12-31T01:52:31.911Z,8.02
2022-12-31T01:55:24.334Z,4.22
2022-12-31T01:57:57.474Z,10.48
2022-12-31T02:00:25.100Z,3.75
2022-12-31T02:02:53.152Z,5.22
2022-12-31T02:05:29.288Z,4.03
2022-12-31T02:07:57.481Z,5.45
2022-12-31T02:10:25.214Z,4.57
2022-12-31T02:12:53.139Z,4.85
2022-12-31T02:15:28.584Z,4.97
2022-12-31T02:18:21.286Z,2.83
2022-12-31T02:21:03.841Z,3.50
2022-12-31T02:23:49.634Z,5.07
2022-12-31T02:26:47.819Z,3.75
2022-12-31T02:29:48.536Z,4.78
2022-12-31T02:32:22.980Z,4.28
2022-12-31T02:34:55.799Z,3.50
2022-12-31T02:37:27.809Z,4.07
2022-12-31T02:39:56.231Z,4.15
2022-12-31T02:42:23.799Z,5.10
2022-12-31T02:44:51.309Z,3.28
2022-12-31T02:47:33.110Z,4.57
2022-12-31T02:50:13.211Z,4.22
2022-12-31T02:52:52.079Z,2.83
2022-12-31T02:55:31.394Z,5.35
2022-12-31T02:58:17.516Z,2.22
2022-12-31T03:01:13.732Z,1.17
2022-12-31T03:03:42.232Z,2.42
2022-12-31T03:06:11.279Z,3.45
2022-12-31T03:09:08.742Z,4.47
2022-12-31T03:11:54.977Z,5.75
2022-12-31T03:14:22.434Z,2.78
2022-12-31T03:16:49.931Z,5.70
2022-12-31T03:19:36.188Z,3.35
2022-12-31T03:22:22.125Z,5.05
2022-12-31T03:25:09.439Z,3.60
2022-12-31T03:27:37.064Z,2.70
2022-12-31T03:30:05.287Z,3.55
2022-12-31T03:32:33.043Z,4.22
2022-12-31T03:35:00.511Z,5.03
2022-12-31T03:37:28.125Z,2.30
2022-12-31T03:39:56.036Z,6.45
2022-12-31T03:42:23.561Z,2.92
2022-12-31T03:44:51.144Z,2.17
2022-12-31T03:47:18.619Z,4.63
2022-12-31T03:49:46.085Z,2.00
2022-12-31T03:52:13.531Z,4.65
2022-12-31T03:54:41.117Z,3.78
2022-12-31T03:57:08.791Z,1.45
2022-12-31T03:59:36.376Z,4.78
2022-12-31T04:02:04.519Z,4.22
2022-12-31T04:04:32.189Z,3.50
2022-12-31T04:06:59.710Z,2.65
2022-12-31T04:09:27.764Z,2.83
2022-12-31T04:11:55.264Z,3.50
2022-12-31T04:14:22.823Z,3.20
2022-12-31T04:16:50.481Z,2.47
2022-12-31T04:19:18.237Z,4.30
2022-12-31T04:21:45.709Z,2.88
2022-12-31T04:24:13.338Z,4.03
2022-12-31T04:26:41.008Z,1.58
2022-12-31T04:29:08.525Z,2.03
2022-12-31T04:31:36.053Z,1.15
2022-12-31T04:34:03.561Z,1.02
2022-12-31T04:36:31.105Z,1.42
2022-12-31T04:38:58.624Z,3.33
2022-12-31T04:41:27.201Z,1.42
2022-12-31T04:43:57.645Z,3.67
2022-12-31T04:46:29.024Z,2.17
2022-12-31T04:48:57.111Z,3.03
2022-12-31T04:51:25.853Z,1.77
2022-12-31T04:53:53.678Z,4.88
2022-12-31T04:56:22.847Z,1.05
2022-12-31T04:58:50.530Z,4.28
2022-12-31T05:01:18.199Z,3.08
2022-12-31T05:03:46.520Z,3.25
2022-12-31T05:06:16.321Z,4.35
2022-12-31T05:08:44.245Z,1.80
2022-12-31T05:11:12.166Z,4.47
2022-12-31T05:13:40.138Z,4.80
2022-12-31T05:16:08.402Z,2.38
2022-12-31T05:18:36.331Z,4.35
2022-12-31T05:21:04.498Z,1.92
2022-12-31T05:23:32.017Z,3.67
2022-12-31T05:25:59.771Z,4.25
2022-12-31T05:28:27.515Z,3.53
2022-12-31T05:30:55.114Z,2.60
2022-12-31T05:33:23.228Z,3.92
2022-12-31T05:35:51.845Z,1.33
2022-12-31T05:38:19.362Z,2.80
2022-12-31T05:40:46.889Z,2.35
2022-12-31T05:43:14.699Z,2.03
2022-12-31T05:45:42.227Z,1.77
2022-12-31T05:48:09.763Z,3.55
2022-12-31T05:50:37.272Z,2.63
2022-12-31T05:53:04.793Z,2.13
2022-12-31T05:55:32.285Z,2.67
2022-12-31T05:57:59.768Z,1.77
2022-12-31T06:00:27.282Z,5.07
2022-12-31T06:02:54.830Z,3.05
2022-12-31T06:05:26.100Z,2.63
2022-12-31T06:07:53.933Z,5.70
2022-12-31T06:10:21.479Z,4.57
2022-12-31T06:12:49.017Z,8.75
2022-12-31T06:15:16.719Z,4.30
2022-12-31T06:17:44.321Z,3.03
2022-12-31T06:20:13.461Z,4.68
2022-12-31T06:22:41.222Z,3.80
2022-12-31T06:25:09.419Z,3.42
2022-12-31T06:27:37.028Z,8.65
2022-12-31T06:30:05.023Z,2.72
2022-12-31T06:32:32.671Z,4.25
2022-12-31T06:35:00.216Z,1.40
2022-12-31T06:37:27.691Z,2.88
2022-12-31T06:39:55.233Z,2.15
2022-12-31T06:42:22.723Z,3.55
2022-12-31T06:44:50.185Z,3.67
2022-12-31T06:47:17.694Z,5.30
2022-12-31T06:49:45.223Z,2.47
2022-12-31T06:52:12.749Z,3.85
2022-12-31T06:54:40.524Z,4.10
2022-12-31T06:57:09.721Z,2.15
2022-12-31T06:59:41.077Z,7.28
2022-12-31T07:02:20.572Z,2.78
2022-12-31T07:05:06.605Z,4.40
2022-12-31T07:07:44.710Z,2.03
2022-12-31T07:10:29.783Z,1.70
2022-12-31T07:13:18.767Z,2.40
2022-12-31T07:16:13.463Z,1.80
2022-12-31T07:19:03.112Z,3.55
2022-12-31T07:21:41.639Z,3.20
2022-12-31T07:24:10.689Z,3.38
2022-12-31T07:27:01.595Z,3.13
2022-12-31T07:30:02.226Z,2.78
2022-12-31T07:32:48.423Z,3.15
2022-12-31T07:37:59.723Z,2.17
2022-12-31T07:41:09.649Z,2.47
2022-12-31T07:44:14.761Z,2.40
2022-12-31T07:46:58.044Z,4.10
2022-12-31T07:49:27.418Z,2.85
2022-12-31T07:51:55.440Z,4.35
2022-12-31T07:54:23.019Z,5.40
2022-12-31T07:56:51.311Z,3.88
2022-12-31T07:59:41.100Z,3.53
2022-12-31T08:02:24.519Z,3.38
2022-12-31T08:05:10.819Z,4.40
2022-12-31T08:10:18.323Z,9.57
2022-12-31T08:12:49.684Z,7.15
2022-12-31T08:15:19.455Z,5.55
2022-12-31T08:17:47.233Z,2.83
2022-12-31T08:20:16.553Z,4.18
2022-12-31T08:23:08.418Z,4.10
2022-12-31T08:26:06.558Z,6.35
2022-12-31T08:28:49.297Z,1.65
2022-12-31T08:31:20.745Z,5.03
2022-12-31T08:34:17.274Z,2.78
2022-12-31T08:36:57.602Z,4.72
2022-12-31T08:39:57.434Z,3.55
2022-12-31T08:42:45.296Z,3.97
2022-12-31T08:45:52.871Z,2.65
2022-12-31T08:48:32.848Z,9.93
2022-12-31T08:51:00.665Z,3.25
2022-12-31T08:53:28.645Z,6.60
2022-12-31T08:56:20.542Z,5.65
2022-12-31T08:59:13.170Z,4.20
2022-12-31T09:02:11.080Z,3.92
2022-12-31T09:04:53.691Z,4.75
2022-12-31T09:07:37.560Z,5.32
2022-12-31T09:10:29.622Z,4.30
2022-12-31T09:13:27.971Z,4.68
2022-12-31T09:16:13.724Z,5.75
2022-12-31T09:18:42.307Z,4.45
2022-12-31T09:21:12.440Z,6.50
2022-12-31T09:23:42.116Z,7.75
2022-12-31T09:26:28.421Z,7.40
2022-12-31T09:29:15.537Z,6.65
2022-12-31T09:32:10.513Z,3.30
2022-12-31T09:34:49.802Z,4.80
2022-12-31T09:37:43.491Z,5.18
2022-12-31T09:40:22.560Z,6.57
2022-12-31T09:43:30.005Z,4.95
2022-12-31T09:46:13.110Z,8.47
2022-12-31T09:49:09.643Z,6.07
2022-12-31T09:51:43.479Z,4.28
2022-12-31T09:54:44.825Z,8.38
2022-12-31T09:57:12.286Z,3.63
2022-12-31T10:00:00.340Z,5.45
2022-12-31T10:03:07.272Z,5.43
2022-12-31T10:05:52.810Z,4.68
2022-12-31T10:08:55.319Z,7.07
2022-12-31T10:11:50.155Z,8.18
2022-12-31T10:14:23.309Z,5.90
2022-12-31T10:17:24.275Z,4.78
2022-12-31T10:19:54.571Z,6.38
2022-12-31T10:22:34.061Z,4.22
2022-12-31T10:25:19.999Z,6.68
2022-12-31T10:28:11.790Z,4.57
2022-12-31T10:30:45.688Z,6.60
2022-12-31T10:33:22.475Z,4.55
2022-12-31T10:36:14.665Z,5.45
2022-12-31T10:39:05.068Z,7.63
2022-12-31T10:42:07.059Z,9.00
2022-12-31T10:44:49.688Z,10.35
2022-12-31T10:47:28.975Z,10.32
2022-12-31T10:50:22.447Z,10.48
2022-12-31T10:53:14.678Z,8.18
2022-12-31T10:56:16.178Z,8.60
2022-12-31T10:58:52.924Z,10.45
2022-12-31T11:01:30.534Z,8.13
2022-12-31T11:04:26.823Z,7.80
2022-12-31T11:07:18.661Z,9.25
2022-12-31T11:10:04.961Z,8.95
2022-12-31T11:15:20.854Z,6.38
2022-12-31T11:18:15.972Z,14.55
2022-12-31T11:21:06.239Z,12.20
2022-12-31T11:23:51.163Z,12.55
2022-12-31T11:26:42.618Z,10.02
2022-12-31T11:29:25.354Z,18.40
2022-12-31T11:32:21.073Z,22.25
2022-12-31T11:34:48.569Z,17.20
2022-12-31T11:37:49.388Z,16.73
2022-12-31T11:40:50.432Z,11.82
2022-12-31T11:43:24.187Z,12.52
2022-12-31T11:46:13.839Z,12.50
2022-12-31T11:48:57.910Z,8.98
2022-12-31T11:51:37.141Z,10.40
2022-12-31T11:54:37.446Z,12.65
2022-12-31T11:57:32.105Z,8.90
2022-12-31T12:00:12.964Z,5.43
2022-12-31T12:02:52.624Z,9.10
2022-12-31T12:05:23.122Z,4.72
2022-12-31T12:07:52.124Z,7.13
2022-12-31T12:10:33.791Z,8.50
2022-12-31T12:13:14.456Z,4.05
2022-12-31T12:15:45.838Z,5.57
2022-12-31T12:18:42.281Z,5.30
2022-12-31T12:21:30.057Z,8.23
2022-12-31T12:24:20.103Z,4.45
2022-12-31T12:26:48.352Z,7.85
2022-12-31T12:29:31.541Z,7.47
2022-12-31T12:32:06.535Z,7.28
2022-12-31T12:34:44.428Z,6.10
2022-12-31T12:37:35.538Z,7.25
2022-12-31T12:40:20.004Z,4.38
2022-12-31T12:42:49.215Z,6.55
2022-12-31T12:45:24.639Z,5.25
2022-12-31T12:48:03.176Z,3.38
2022-12-31T12:50:41.809Z,5.63
2022-12-31T12:53:59.284Z,5.07
2022-12-31T12:56:52.361Z,3.72
2022-12-31T12:59:44.448Z,6.55
2022-12-31T13:02:48.934Z,4.00
2022-12-31T13:05:40.670Z,3.90
2022-12-31T13:08:45.670Z,3.33
2022-12-31T13:11:31.913Z,4.00
2022-12-31T13:16:52.420Z,3.80
2022-12-31T13:19:37.375Z,3.95
2022-12-31T13:22:19.910Z,2.70
2022-12-31T13:24:52.092Z,14.10
2022-12-31T13:27:37.023Z,6.07
2022-12-31T13:30:33.749Z,4.70
2022-12-31T13:35:42.696Z,7.15
2022-12-31T13:38:24.167Z,5.93
2022-12-31T13:40:57.080Z,5.25
2022-12-31T13:43:56.726Z,9.00
2022-12-31T13:46:26.801Z,6.93
2022-12-31T13:49:01.558Z,6.07
2022-12-31T13:51:32.001Z,7.78
2022-12-31T13:54:25.597Z,9.05
2022-12-31T13:56:55.667Z,6.18
2022-12-31T13:59:29.623Z,7.32
2022-12-31T14:02:06.424Z,11.60
2022-12-31T14:04:40.543Z,7.22
2022-12-31T14:07:45.179Z,5.72
2022-12-31T14:10:20.641Z,5.78
2022-12-31T14:12:48.114Z,8.93
2022-12-31T14:15:33.804Z,8.65
2022-12-31T14:18:32.755Z,8.77
2022-12-31T14:21:18.369Z,7.63
2022-12-31T14:23:49.216Z,9.27
2022-12-31T14:26:34.249Z,13.27
2022-12-31T14:29:10.686Z,11.63
2022-12-31T14:31:50.237Z,7.13
2022-12-31T14:34:49.937Z,9.65
2022-12-31T14:37:42.002Z,13.13
2022-12-31T14:40:30.767Z,9.82
2022-12-31T14:43:10.461Z,19.50
2022-12-31T14:46:03.144Z,8.25
2022-12-31T14:48:42.595Z,8.05
2022-12-31T14:51:12.391Z,10.73
2022-12-31T14:53:40.070Z,10.13
2022-12-31T14:56:30.980Z,7.57
2022-12-31T14:59:01.104Z,4.18
2022-12-31T15:01:29.404Z,5.00
2022-12-31T15:03:58.284Z,6.22
2022-12-31T15:07:01.510Z,7.63
2022-12-31T15:09:58.485Z,7.45
2022-12-31T15:13:12.493Z,7.97
2022-12-31T15:16:09.463Z,8.23
2022-12-31T15:18:53.041Z,7.45
2022-12-31T15:21:39.506Z,5.78
2022-12-31T15:24:23.951Z,9.45
2022-12-31T15:26:54.708Z,6.05
2022-12-31T15:29:32.227Z,6.05
2022-12-31T15:32:03.695Z,7.18
2022-12-31T15:34:40.071Z,12.48
2022-12-31T15:37:35.123Z,8.00
2022-12-31T15:40:20.936Z,13.30
2022-12-31T15:42:55.195Z,11.68
2022-12-31T15:45:43.001Z,11.43
2022-12-31T15:48:26.027Z,15.45
2022-12-31T15:50:59.002Z,11.95
2022-12-31T15:53:38.593Z,11.75
2022-12-31T15:56:08.049Z,14.98
2022-12-31T15:58:37.371Z,15.35
2022-12-31T16:01:25.481Z,14.70
2022-12-31T16:03:59.601Z,20.63
2022-12-31T16:06:31.458Z,21.63
2022-12-31T16:08:59.325Z,23.42
2022-12-31T16:11:30.460Z,18.70
2022-12-31T16:13:59.850Z,20.15
2022-12-31T16:16:30.039Z,22.02
2022-12-31T16:18:59.069Z,25.08
2022-12-31T16:21:30.131Z,24.38
2022-12-31T16:24:00.410Z,28.10
2022-12-31T16:26:53.281Z,19.27
2022-12-31T16:29:23.345Z,19.27
2022-12-31T16:31:53.720Z,23.05
2022-12-31T16:34:24.275Z,23.02
2022-12-31T16:36:55.737Z,22.90
2022-12-31T16:39:29.970Z,26.80
2022-12-31T16:42:14.036Z,21.88
2022-12-31T16:44:42.359Z,19.52
2022-12-31T16:47:16.751Z,28.08
2022-12-31T16:49:48.635Z,18.45
2022-12-31T16:52:29.406Z,15.63
2022-12-31T16:54:57.979Z,14.02
2022-12-31T16:57:29.195Z,10.57
2022-12-31T17:00:02.323Z,11.38
2022-12-31T17:02:45.294Z,9.50
2022-12-31T17:05:24.788Z,10.65
2022-12-31T17:07:53.032Z,10.85
2022-12-31T17:10:24.678Z,8.20
2022-12-31T17:13:34.446Z,10.30
2022-12-31T17:16:02.454Z,12.90
2022-12-31T17:18:39.139Z,8.02
2022-12-31T17:21:11.405Z,5.88
2022-12-31T17:23:40.283Z,18.92
2022-12-31T17:26:22.109Z,9.63
2022-12-31T17:28:52.549Z,10.43
2022-12-31T17:31:40.657Z,13.48
2022-12-31T17:34:14.427Z,11.32
2022-12-31T17:36:57.186Z,8.48
2022-12-31T17:39:25.477Z,5.82
2022-12-31T17:41:57.556Z,8.05
2022-12-31T17:44:28.576Z,7.72
2022-12-31T17:46:56.314Z,6.32
2022-12-31T17:49:29.600Z,14.82
2022-12-31T17:51:57.303Z,9.23
2022-12-31T17:54:25.073Z,9.25
2022-12-31T17:56:53.447Z,8.80
2022-12-31T17:59:33.473Z,8.30
2022-12-31T18:02:02.907Z,10.32
2022-12-31T18:04:30.477Z,8.63
2022-12-31T18:06:58.125Z,5.90
2022-12-31T18:09:25.594Z,4.78
2022-12-31T18:11:58.208Z,9.40
2022-12-31T18:14:29.131Z,8.07
2022-12-31T18:16:56.694Z,10.15
2022-12-31T18:19:54.237Z,9.25
2022-12-31T18:22:17.891Z,10.63
2022-12-31T18:24:45.492Z,18.30
2022-12-31T18:27:16.555Z,8.85
2022-12-31T18:29:44.705Z,16.50
2022-12-31T18:32:25.245Z,11.00
2022-12-31T18:34:53.128Z,11.50
2022-12-31T18:37:22.335Z,10.73
2022-12-31T18:39:50.085Z,9.93
2022-12-31T18:42:18.687Z,9.35
2022-12-31T18:44:46.666Z,11.90
2022-12-31T18:47:19.454Z,13.98
2022-12-31T18:49:48.672Z,8.95
2022-12-31T18:52:18.815Z,9.52
2022-12-31T18:54:46.478Z,13.18
2022-12-31T18:57:15.715Z,8.07
2022-12-31T18:59:43.240Z,11.45
2022-12-31T19:02:20.688Z,6.45
2022-12-31T19:04:48.592Z,11.43
2022-12-31T19:07:16.051Z,5.82
2022-12-31T19:09:45.634Z,8.45
2022-12-31T19:12:14.814Z,11.73
2022-12-31T19:14:42.414Z,6.65
2022-12-31T19:19:36.304Z,11.32
2022-12-31T19:22:04.003Z,7.80
2022-12-31T19:24:31.531Z,9.60
2022-12-31T19:27:01.487Z,9.63
2022-12-31T19:29:29.308Z,10.45
2022-12-31T19:31:58.246Z,9.20
2022-12-31T19:34:26.023Z,8.65
2022-12-31T19:36:53.556Z,8.05
2022-12-31T19:39:21.543Z,10.10
2022-12-31T19:41:56.469Z,10.25
2022-12-31T19:44:26.283Z,5.55
2022-12-31T19:46:53.756Z,8.80
2022-12-31T19:49:21.412Z,9.00
2022-12-31T19:51:48.964Z,11.80
2022-12-31T19:54:16.429Z,8.98
2022-12-31T19:56:44.040Z,11.55
2022-12-31T19:59:12.054Z,8.48
2022-12-31T20:01:39.644Z,6.45
2022-12-31T20:04:07.460Z,8.23
2022-12-31T20:06:34.917Z,7.88
2022-12-31T20:09:03.365Z,7.80
2022-12-31T20:11:31.291Z,8.60
2022-12-31T20:13:59.106Z,5.53
2022-12-31T20:16:27.060Z,9.30
2022-12-31T20:18:54.660Z,8.15
2022-12-31T20:21:25.743Z,11.07
2022-12-31T20:23:54.617Z,6.90
2022-12-31T20:26:23.975Z,8.77
2022-12-31T20:28:52.186Z,7.70
2022-12-31T20:31:25.063Z,10.07
2022-12-31T20:33:54.316Z,7.97
2022-12-31T20:36:22.639Z,5.45
2022-12-31T20:38:50.425Z,9.90
2022-12-31T20:41:22.670Z,6.88
2022-12-31T20:43:50.505Z,8.07
2022-12-31T20:46:29.785Z,14.48
2022-12-31T20:49:00.257Z,8.10
2022-12-31T20:51:30.726Z,7.40
2022-12-31T20:54:05.453Z,6.85
2022-12-31T20:56:35.219Z,5.45
2022-12-31T21:01:22.868Z,6.18
2022-12-31T21:04:07.093Z,5.85
2022-12-31T21:06:35.762Z,12.85
2022-12-31T21:09:05.694Z,11.93
2022-12-31T21:11:52.220Z,5.13
2022-12-31T21:14:20.289Z,9.57
2022-12-31T21:16:47.793Z,7.20
2022-12-31T21:19:15.310Z,3.92
2022-12-31T21:21:43.025Z,6.20
2022-12-31T21:24:10.883Z,5.65
2022-12-31T21:26:38.663Z,8.38
2022-12-31T21:29:06.203Z,6.68
2022-12-31T21:31:33.840Z,4.65
2022-12-31T21:34:01.425Z,5.00
2022-12-31T21:36:28.921Z,6.50
2022-12-31T21:38:56.563Z,7.53
2022-12-31T21:41:42.595Z,3.10
2022-12-31T21:44:10.106Z,6.30
2022-12-31T21:46:37.802Z,4.10
2022-12-31T21:49:05.936Z,4.10
2022-12-31T21:51:53.713Z,2.05
2022-12-31T21:54:41.249Z,2.72
2022-12-31T21:57:09.273Z,3.38
2022-12-31T22:00:24.018Z,6.13
2022-12-31T22:03:01.847Z,5.33
2022-12-31T22:05:29.448Z,3.25
2022-12-31T22:07:56.951Z,2.95
2022-12-31T22:10:24.530Z,6.18
2022-12-31T22:12:52.050Z,3.40
2022-12-31T22:15:20.256Z,10.57
2022-12-31T22:17:47.801Z,4.13
2022-12-31T22:20:27.188Z,4.20
2022-12-31T22:22:56.190Z,5.28
2022-12-31T22:25:23.773Z,4.13
2022-12-31T22:28:27.594Z,6.05
2022-12-31T22:30:38.912Z,8.32
2022-12-31T22:33:06.397Z,6.07
2022-12-31T22:35:33.943Z,8.43
2022-12-31T22:38:06.671Z,7.50
2022-12-31T22:40:40.389Z,8.80
2022-12-31T22:43:07.864Z,10.73
2022-12-31T22:45:36.731Z,10.15
2022-12-31T22:48:04.415Z,5.93
2022-12-31T22:50:31.865Z,5.57
2022-12-31T22:52:59.303Z,9.80
2022-12-31T22:55:26.875Z,4.28
2022-12-31T22:57:54.379Z,6.60
2022-12-31T23:00:37.194Z,9.25
2022-12-31T23:03:04.803Z,2.53
2022-12-31T23:05:33.971Z,4.18
2022-12-31T23:08:07.942Z,5.63
2022-12-31T23:10:59.113Z,2.58
2022-12-31T23:13:50.698Z,3.03
2022-12-31T23:16:38.532Z,9.13
2022-12-31T23:19:25.358Z,4.22
2022-12-31T23:22:12.227Z,6.18
2022-12-31T23:24:40.040Z,8.23
2022-12-31T23:27:08.355Z,3.40
2022-12-31T23:29:45.565Z,7.43
2022-12-31T23:32:18.276Z,4.07
2022-12-31T23:34:46.948Z,4.93
2022-12-31T23:37:15.430Z,6.38
2022-12-31T23:39:43.269Z,4.57
2022-12-31T23:42:11.016Z,3.65
2022-12-31T23:44:38.649Z,4.20
2022-12-31T23:47:06.337Z,4.03
2022-12-31T23:49:33.865Z,4.15
2022-12-31T23:52:01.517Z,4.18
2022-12-31T23:54:29.021Z,4.88
2022-12-31T23:56:56.429Z,3.08
2022-12-31T23:59:23.986Z,6.45
